createdAt,value
2023-05-03T00:02:44.907Z,5.10
2023-05-03T00:05:31.291Z,5.88
2023-05-03T00:08:17.157Z,5.00
2023-05-03T00:11:02.695Z,4.95
2023-05-03T00:13:48.066Z,5.32
2023-05-03T00:16:33.358Z,5.63
2023-05-03T00:19:30.476Z,5.50
2023-05-03T00:22:16.835Z,5.88
2023-05-03T00:25:02.851Z,5.07
2023-05-03T00:27:48.441Z,5.30
2023-05-03T00:30:34.095Z,4.75
2023-05-03T00:33:19.865Z,5.20
2023-05-03T00:36:10.557Z,5.45
2023-05-03T00:38:56.584Z,4.85
2023-05-03T00:41:42.163Z,5.18
2023-05-03T00:44:27.789Z,4.97
2023-05-03T00:47:13.337Z,5.43
2023-05-03T00:50:00.766Z,4.82
2023-05-03T00:52:46.484Z,4.30
2023-05-03T00:55:33.205Z,4.90
2023-05-03T00:58:18.728Z,5.30
2023-05-03T01:01:04.433Z,5.00
2023-05-03T01:03:50.721Z,4.78
2023-05-03T01:06:45.001Z,5.10
2023-05-03T01:09:49.308Z,4.72
2023-05-03T01:12:52.973Z,5.38
2023-05-03T01:16:04.911Z,5.88
2023-05-03T01:18:54.973Z,4.97
2023-05-03T01:21:45.394Z,5.28
2023-05-03T01:24:33.604Z,5.35
2023-05-03T01:27:19.397Z,5.95
2023-05-03T01:30:10.516Z,5.00
2023-05-03T01:33:07.962Z,5.00
2023-05-03T01:36:09.218Z,5.00
2023-05-03T01:38:54.883Z,4.93
2023-05-03T01:41:43.098Z,5.65
2023-05-03T01:44:29.227Z,4.45
2023-05-03T01:47:15.295Z,4.75
2023-05-03T01:50:01.153Z,4.05
2023-05-03T01:52:46.521Z,4.10
2023-05-03T01:55:31.891Z,3.95
2023-05-03T01:58:17.340Z,5.63
2023-05-03T02:01:06.287Z,5.00
2023-05-03T02:03:51.896Z,5.15
2023-05-03T02:06:37.485Z,5.05
2023-05-03T02:09:24.205Z,4.82
2023-05-03T02:12:11.490Z,4.32
2023-05-03T02:14:57.165Z,5.65
2023-05-03T02:17:43.874Z,5.03
2023-05-03T02:20:32.635Z,4.38
2023-05-03T02:23:17.901Z,4.20
2023-05-03T02:26:03.560Z,5.00
2023-05-03T02:28:49.027Z,5.20
2023-05-03T02:31:34.610Z,4.85
2023-05-03T02:34:20.356Z,5.00
2023-05-03T02:37:06.365Z,4.97
2023-05-03T02:39:51.848Z,5.35
2023-05-03T02:42:37.835Z,4.47
2023-05-03T02:45:23.386Z,4.25
2023-05-03T02:48:09.773Z,5.00
2023-05-03T02:50:56.078Z,4.30
2023-05-03T02:53:41.379Z,4.10
2023-05-03T02:56:27.701Z,4.50
2023-05-03T02:59:13.359Z,5.30
2023-05-03T03:01:58.909Z,4.50
2023-05-03T03:04:44.783Z,5.53
2023-05-03T03:07:30.281Z,5.68
2023-05-03T03:10:15.781Z,5.30
2023-05-03T03:13:01.166Z,4.47
2023-05-03T03:15:47.081Z,4.63
2023-05-03T03:18:32.704Z,5.22
2023-05-03T03:21:18.181Z,4.28
2023-05-03T03:24:04.295Z,5.20
2023-05-03T03:26:49.882Z,4.95
2023-05-03T03:29:35.357Z,5.25
2023-05-03T03:32:21.693Z,5.60
2023-05-03T03:35:08.593Z,5.10
2023-05-03T03:37:54.052Z,5.57
2023-05-03T03:40:40.172Z,5.55
2023-05-03T03:43:25.812Z,5.28
2023-05-03T03:46:11.103Z,5.63
2023-05-03T03:48:56.620Z,5.43
2023-05-03T03:51:42.259Z,5.68
2023-05-03T03:54:27.738Z,5.75
2023-05-03T03:57:12.824Z,5.07
2023-05-03T03:59:59.450Z,4.95
2023-05-03T04:02:46.775Z,4.93
2023-05-03T04:05:32.962Z,5.13
2023-05-03T04:08:18.488Z,4.95
2023-05-03T04:11:03.976Z,4.15
2023-05-03T04:13:49.567Z,4.28
2023-05-03T04:16:34.953Z,4.60
2023-05-03T04:19:22.755Z,4.20
2023-05-03T04:22:08.073Z,4.40
2023-05-03T04:24:54.866Z,4.65
2023-05-03T04:27:41.235Z,4.47
2023-05-03T04:30:27.018Z,4.90
2023-05-03T04:33:13.657Z,4.78
2023-05-03T04:35:59.316Z,4.47
2023-05-03T04:38:44.940Z,4.63
2023-05-03T04:41:30.624Z,5.20
2023-05-03T04:44:16.164Z,4.47
2023-05-03T04:47:02.707Z,5.40
2023-05-03T04:49:48.058Z,5.07
2023-05-03T04:52:33.365Z,4.88
2023-05-03T04:55:19.511Z,5.32
2023-05-03T04:58:04.811Z,5.32
2023-05-03T05:00:50.353Z,5.55
2023-05-03T05:03:35.892Z,6.53
2023-05-03T05:06:21.813Z,6.63
2023-05-03T05:09:07.605Z,6.28
2023-05-03T05:11:56.151Z,6.40
2023-05-03T05:14:42.298Z,6.47
2023-05-03T05:17:27.962Z,5.80
2023-05-03T05:20:13.647Z,6.15
2023-05-03T05:22:59.302Z,5.78
2023-05-03T05:25:45.867Z,4.80
2023-05-03T05:28:32.410Z,6.10
2023-05-03T05:31:17.712Z,6.13
2023-05-03T05:34:03.716Z,5.35
2023-05-03T05:36:50.558Z,4.97
2023-05-03T05:39:35.853Z,5.10
2023-05-03T05:42:21.555Z,5.53
2023-05-03T05:45:08.157Z,5.90
2023-05-03T05:47:53.867Z,7.50
2023-05-03T05:50:39.407Z,7.93
2023-05-03T05:53:25.191Z,8.30
2023-05-03T05:56:11.380Z,6.70
2023-05-03T05:58:57.733Z,5.68
2023-05-03T06:01:46.120Z,5.70
2023-05-03T06:04:31.442Z,6.72
2023-05-03T06:07:16.974Z,6.35
2023-05-03T06:10:03.141Z,6.32
2023-05-03T06:12:48.982Z,6.13
2023-05-03T06:15:34.525Z,6.05
2023-05-03T06:18:20.245Z,7.13
2023-05-03T06:21:05.695Z,6.25
2023-05-03T06:23:51.223Z,6.65
2023-05-03T06:26:36.535Z,6.35
2023-05-03T06:29:22.077Z,6.15
2023-05-03T06:32:07.854Z,5.95
2023-05-03T06:34:53.694Z,6.30
2023-05-03T06:37:39.491Z,6.50
2023-05-03T06:40:26.397Z,6.85
2023-05-03T06:43:12.053Z,6.10
2023-05-03T06:45:57.487Z,6.40
2023-05-03T06:48:43.107Z,6.78
2023-05-03T06:51:32.306Z,7.20
2023-05-03T06:54:17.856Z,7.15
2023-05-03T06:57:04.438Z,6.53
2023-05-03T06:59:49.799Z,7.63
2023-05-03T07:02:35.839Z,7.55
2023-05-03T07:05:21.401Z,6.32
2023-05-03T07:08:06.616Z,6.40
2023-05-03T07:10:51.861Z,6.47
2023-05-03T07:13:37.315Z,6.43
2023-05-03T07:16:22.718Z,5.70
2023-05-03T07:19:08.662Z,6.35
2023-05-03T07:21:54.181Z,6.57
2023-05-03T07:24:39.812Z,6.43
2023-05-03T07:27:26.864Z,6.50
2023-05-03T07:30:12.531Z,6.10
2023-05-03T07:32:57.863Z,6.10
2023-05-03T07:35:46.429Z,6.10
2023-05-03T07:38:34.028Z,6.03
2023-05-03T07:41:19.627Z,6.13
2023-05-03T07:44:05.187Z,5.82
2023-05-03T07:46:50.637Z,5.82
2023-05-03T07:49:37.981Z,5.70
2023-05-03T07:52:23.517Z,5.43
2023-05-03T07:55:09.470Z,6.05
2023-05-03T07:57:59.354Z,5.22
2023-05-03T08:00:44.919Z,5.63
2023-05-03T08:03:30.657Z,5.45
2023-05-03T08:06:17.521Z,4.93
2023-05-03T08:09:04.471Z,5.35
2023-05-03T08:11:49.872Z,5.30
2023-05-03T08:14:37.167Z,5.10
2023-05-03T08:17:23.248Z,5.20
2023-05-03T08:20:09.924Z,5.15
2023-05-03T08:22:56.941Z,5.25
2023-05-03T08:25:42.318Z,5.18
2023-05-03T08:28:28.013Z,5.00
2023-05-03T08:31:13.601Z,5.70
2023-05-03T08:33:58.861Z,5.53
2023-05-03T08:36:44.799Z,5.50
2023-05-03T08:39:31.730Z,5.80
2023-05-03T08:42:18.724Z,5.65
2023-05-03T08:45:04.733Z,5.82
2023-05-03T08:47:55.303Z,5.93
2023-05-03T08:50:44.418Z,5.65
2023-05-03T08:53:30.310Z,5.43
2023-05-03T08:56:30.451Z,5.97
2023-05-03T08:59:17.374Z,5.72
2023-05-03T09:02:03.134Z,5.22
2023-05-03T09:04:48.360Z,5.63
2023-05-03T09:07:33.981Z,4.93
2023-05-03T09:10:25.584Z,5.60
2023-05-03T09:13:12.171Z,5.63
2023-05-03T09:15:58.367Z,5.65
2023-05-03T09:18:56.845Z,5.60
2023-05-03T09:21:44.997Z,5.10
2023-05-03T09:24:30.555Z,5.32
2023-05-03T09:27:21.369Z,5.05
2023-05-03T09:30:18.418Z,5.22
2023-05-03T09:33:04.702Z,5.13
2023-05-03T09:36:01.012Z,5.20
2023-05-03T09:38:46.584Z,4.82
2023-05-03T09:41:32.163Z,4.60
2023-05-03T09:44:17.941Z,4.60
2023-05-03T09:47:07.585Z,5.03
2023-05-03T09:49:53.145Z,4.90
2023-05-03T09:52:40.407Z,5.20
2023-05-03T09:55:26.511Z,4.82
2023-05-03T09:58:13.047Z,5.05
2023-05-03T10:00:58.372Z,4.97
2023-05-03T10:03:50.554Z,4.75
2023-05-03T10:06:41.643Z,4.22
2023-05-03T10:09:35.886Z,4.40
2023-05-03T10:12:21.897Z,4.57
2023-05-03T10:15:10.703Z,4.40
2023-05-03T10:18:00.982Z,4.35
2023-05-03T10:20:54.909Z,4.05
2023-05-03T10:24:16.079Z,4.72
2023-05-03T10:27:02.981Z,4.30
2023-05-03T10:29:50.385Z,3.97
2023-05-03T10:32:43.098Z,4.50
2023-05-03T10:35:29.893Z,4.40
2023-05-03T10:38:23.114Z,4.80
2023-05-03T10:41:08.616Z,5.03
2023-05-03T10:43:54.018Z,4.45
2023-05-03T10:46:39.698Z,4.50
2023-05-03T10:49:26.586Z,4.70
2023-05-03T10:52:40.827Z,4.22
2023-05-03T10:55:26.254Z,4.50
2023-05-03T10:58:16.706Z,4.10
2023-05-03T11:01:04.569Z,4.25
2023-05-03T11:03:56.104Z,4.72
2023-05-03T11:06:42.512Z,4.47
2023-05-03T11:09:33.227Z,5.03
2023-05-03T11:12:18.602Z,4.50
2023-05-03T11:15:04.490Z,5.13
2023-05-03T11:17:50.089Z,4.95
2023-05-03T11:20:36.229Z,4.80
2023-05-03T11:23:27.760Z,4.70
2023-05-03T11:26:13.793Z,4.22
2023-05-03T11:28:59.330Z,4.85
2023-05-03T11:31:45.243Z,4.50
2023-05-03T11:34:31.269Z,4.38
2023-05-03T11:37:19.239Z,4.55
2023-05-03T11:40:06.914Z,4.50
2023-05-03T11:42:53.404Z,4.20
2023-05-03T11:45:44.051Z,4.10
2023-05-03T11:48:32.324Z,4.57
2023-05-03T11:51:22.925Z,4.15
2023-05-03T11:54:21.175Z,4.30
2023-05-03T11:57:13.989Z,4.20
2023-05-03T12:00:14.636Z,3.85
2023-05-03T12:03:00.988Z,4.40
2023-05-03T12:05:47.945Z,4.40
2023-05-03T12:08:36.477Z,4.63
2023-05-03T12:11:26.006Z,4.60
2023-05-03T12:14:13.099Z,4.40
2023-05-03T12:17:00.429Z,4.25
2023-05-03T12:19:48.817Z,3.78
2023-05-03T12:22:35.310Z,4.80
2023-05-03T12:25:25.720Z,3.42
2023-05-03T12:28:20.480Z,3.90
2023-05-03T12:31:06.952Z,3.40
2023-05-03T12:36:44.015Z,3.80
2023-05-03T12:39:32.503Z,3.60
2023-05-03T12:42:21.941Z,3.40
2023-05-03T12:47:57.435Z,4.20
2023-05-03T12:50:45.451Z,3.85
2023-05-03T12:53:31.411Z,4.20
2023-05-03T12:56:17.375Z,3.50
2023-05-03T12:59:31.665Z,3.60
2023-05-03T13:05:01.046Z,3.60
2023-05-03T13:07:55.543Z,3.70
2023-05-03T13:10:42.966Z,3.47
2023-05-03T13:13:28.614Z,3.97
2023-05-03T13:16:14.632Z,3.75
2023-05-03T13:19:00.526Z,3.63
2023-05-03T13:21:47.787Z,3.97
2023-05-03T13:24:33.307Z,3.92
2023-05-03T13:27:19.063Z,3.83
2023-05-03T13:30:05.146Z,3.78
2023-05-03T13:32:51.183Z,3.67
2023-05-03T13:35:36.588Z,3.13
2023-05-03T13:38:22.244Z,3.30
2023-05-03T13:41:12.383Z,3.67
2023-05-03T13:43:57.974Z,3.13
2023-05-03T13:46:44.055Z,3.20
2023-05-03T13:49:29.672Z,3.55
2023-05-03T13:52:15.153Z,3.33
2023-05-03T13:55:01.343Z,3.25
2023-05-03T13:57:46.931Z,3.28
2023-05-03T14:00:32.593Z,2.85
2023-05-03T14:03:17.901Z,3.20
2023-05-03T14:06:03.298Z,3.55
2023-05-03T14:08:49.253Z,3.58
2023-05-03T14:11:35.129Z,2.88
2023-05-03T14:14:20.632Z,3.20
2023-05-03T14:17:06.708Z,3.10
2023-05-03T14:19:52.365Z,3.25
2023-05-03T14:22:38.035Z,3.38
2023-05-03T14:25:23.469Z,3.33
2023-05-03T14:28:09.276Z,3.22
2023-05-03T14:30:54.838Z,2.95
2023-05-03T14:33:40.613Z,2.63
2023-05-03T14:36:34.942Z,2.92
2023-05-03T14:39:20.284Z,2.90
2023-05-03T14:42:06.114Z,3.00
2023-05-03T14:44:51.338Z,3.20
2023-05-03T14:47:37.368Z,3.10
2023-05-03T14:50:22.967Z,3.25
2023-05-03T14:53:08.537Z,3.10
2023-05-03T14:55:54.662Z,2.90
2023-05-03T14:58:39.935Z,3.22
2023-05-03T15:01:25.777Z,2.85
2023-05-03T15:04:10.983Z,2.90
2023-05-03T15:07:02.616Z,3.03
2023-05-03T15:09:47.858Z,2.60
2023-05-03T15:12:33.376Z,2.65
2023-05-03T15:15:18.610Z,2.80
2023-05-03T15:18:05.581Z,2.40
2023-05-03T15:20:51.321Z,3.03
2023-05-03T15:23:36.865Z,2.70
2023-05-03T15:26:22.699Z,2.72
2023-05-03T15:29:08.231Z,2.75
2023-05-03T15:31:53.616Z,2.80
2023-05-03T15:34:39.533Z,2.90
2023-05-03T15:37:35.948Z,2.65
2023-05-03T15:40:23.741Z,2.85
2023-05-03T15:43:11.330Z,2.40
2023-05-03T15:45:57.005Z,2.58
2023-05-03T15:48:42.271Z,2.72
2023-05-03T15:51:28.028Z,3.35
2023-05-03T15:54:13.418Z,2.70
2023-05-03T15:56:59.372Z,2.90
2023-05-03T15:59:45.076Z,3.00
2023-05-03T16:02:30.683Z,2.60
2023-05-03T16:05:17.398Z,3.15
2023-05-03T16:08:02.950Z,2.67
2023-05-03T16:10:48.573Z,2.83
2023-05-03T16:13:34.173Z,2.78
2023-05-03T16:16:19.584Z,2.63
2023-05-03T16:19:05.044Z,2.60
2023-05-03T16:21:50.657Z,2.72
2023-05-03T16:24:36.274Z,2.90
2023-05-03T16:27:21.640Z,2.97
2023-05-03T16:30:09.083Z,2.85
2023-05-03T16:32:54.718Z,2.58
2023-05-03T16:35:40.174Z,2.60
2023-05-03T16:38:30.438Z,2.63
2023-05-03T16:41:16.159Z,2.72
2023-05-03T16:44:04.780Z,2.72
2023-05-03T16:46:50.269Z,3.05
2023-05-03T16:49:35.630Z,2.75
2023-05-03T16:52:20.834Z,2.75
2023-05-03T16:55:10.934Z,3.10
2023-05-03T16:57:56.324Z,2.80
2023-05-03T17:00:42.404Z,2.97
2023-05-03T17:03:27.963Z,3.03
2023-05-03T17:06:13.598Z,2.80
2023-05-03T17:08:58.887Z,2.72
2023-05-03T17:11:44.326Z,2.85
2023-05-03T17:14:29.789Z,2.90
2023-05-03T17:17:15.501Z,3.03
2023-05-03T17:20:00.951Z,3.13
2023-05-03T17:22:46.547Z,2.90
2023-05-03T17:25:32.476Z,2.78
2023-05-03T17:28:17.978Z,2.65
2023-05-03T17:31:04.243Z,2.83
2023-05-03T17:33:49.696Z,3.03
2023-05-03T17:36:35.356Z,2.92
2023-05-03T17:39:21.498Z,2.67
2023-05-03T17:42:06.871Z,2.88
2023-05-03T17:44:53.191Z,2.70
2023-05-03T17:47:38.388Z,3.00
2023-05-03T17:50:24.090Z,2.90
2023-05-03T17:53:09.606Z,3.00
2023-05-03T17:55:54.824Z,3.20
2023-05-03T17:58:40.202Z,2.97
2023-05-03T18:01:25.790Z,2.58
2023-05-03T18:04:10.998Z,2.90
2023-05-03T18:06:56.608Z,3.17
2023-05-03T18:09:42.556Z,3.10
2023-05-03T18:12:28.537Z,3.58
2023-05-03T18:15:15.606Z,3.22
2023-05-03T18:18:01.488Z,3.10
2023-05-03T18:20:47.312Z,3.17
2023-05-03T18:23:33.800Z,3.00
2023-05-03T18:26:19.498Z,3.00
2023-05-03T18:29:04.780Z,3.17
2023-05-03T18:31:51.457Z,2.95
2023-05-03T18:34:37.565Z,3.42
2023-05-03T18:37:24.693Z,3.50
2023-05-03T18:40:10.678Z,3.40
2023-05-03T18:42:56.673Z,3.50
2023-05-03T18:45:42.216Z,3.60
2023-05-03T18:48:28.163Z,3.33
2023-05-03T18:51:14.337Z,3.55
2023-05-03T18:53:59.910Z,3.42
2023-05-03T18:56:45.567Z,3.30
2023-05-03T18:59:31.099Z,3.28
2023-05-03T19:02:16.630Z,3.40
2023-05-03T19:05:02.010Z,3.38
2023-05-03T19:07:48.244Z,3.55
2023-05-03T19:10:33.571Z,3.63
2023-05-03T19:13:19.545Z,3.95
2023-05-03T19:16:05.253Z,3.50
2023-05-03T19:18:50.615Z,3.85
2023-05-03T19:21:39.302Z,3.53
2023-05-03T19:24:25.290Z,3.65
2023-05-03T19:27:11.741Z,3.88
2023-05-03T19:29:57.979Z,12.40
2023-05-03T19:32:43.453Z,4.35
2023-05-03T19:35:29.117Z,4.00
2023-05-03T19:38:15.052Z,4.18
2023-05-03T19:41:00.941Z,4.00
2023-05-03T19:43:46.592Z,4.05
2023-05-03T19:46:33.910Z,4.18
2023-05-03T19:49:19.493Z,4.60
2023-05-03T19:52:06.093Z,4.32
2023-05-03T19:54:51.611Z,4.10
2023-05-03T19:57:37.921Z,4.90
2023-05-03T20:00:23.618Z,4.55
2023-05-03T20:03:09.313Z,4.32
2023-05-03T20:05:55.297Z,4.50
2023-05-03T20:08:40.551Z,4.18
2023-05-03T20:11:29.080Z,3.97
2023-05-03T20:14:14.528Z,4.30
2023-05-03T20:16:59.960Z,4.10
2023-05-03T20:19:46.556Z,4.70
2023-05-03T20:22:32.079Z,4.47
2023-05-03T20:25:17.899Z,4.68
2023-05-03T20:28:06.827Z,4.13
2023-05-03T20:30:52.164Z,3.85
2023-05-03T20:33:37.532Z,4.30
2023-05-03T20:36:22.845Z,4.60
2023-05-03T20:39:09.628Z,4.55
2023-05-03T20:41:55.273Z,3.95
2023-05-03T20:44:40.698Z,4.53
2023-05-03T20:47:27.717Z,4.40
2023-05-03T20:50:13.249Z,4.72
2023-05-03T20:52:59.789Z,4.78
2023-05-03T20:55:45.179Z,4.55
2023-05-03T20:58:30.665Z,5.00
2023-05-03T21:01:16.262Z,4.75
2023-05-03T21:04:02.955Z,4.70
2023-05-03T21:06:48.618Z,4.35
2023-05-03T21:09:33.964Z,4.90
2023-05-03T21:12:19.519Z,4.47
2023-05-03T21:15:05.322Z,4.68
2023-05-03T21:17:51.039Z,4.95
2023-05-03T21:20:37.006Z,4.18
2023-05-03T21:23:22.309Z,4.45
2023-05-03T21:26:07.828Z,4.15
2023-05-03T21:28:53.449Z,3.90
2023-05-03T21:31:40.207Z,4.10
2023-05-03T21:34:25.901Z,4.25
2023-05-03T21:37:11.547Z,3.85
2023-05-03T21:40:02.183Z,5.03
2023-05-03T21:42:50.752Z,3.92
2023-05-03T21:45:36.293Z,4.40
2023-05-03T21:48:22.580Z,4.93
2023-05-03T21:51:08.798Z,4.97
2023-05-03T21:53:54.542Z,5.05
2023-05-03T21:56:40.123Z,4.50
2023-05-03T21:59:25.604Z,4.47
2023-05-03T22:02:11.264Z,4.63
2023-05-03T22:04:56.504Z,4.30
2023-05-03T22:07:41.631Z,4.57
2023-05-03T22:10:27.458Z,4.07
2023-05-03T22:13:13.212Z,4.53
2023-05-03T22:16:07.502Z,4.70
2023-05-03T22:21:39.036Z,4.03
2023-05-03T22:24:26.729Z,4.30
2023-05-03T22:27:12.359Z,4.50
2023-05-03T22:29:57.587Z,4.47
2023-05-03T22:32:43.155Z,5.03
2023-05-03T22:35:28.613Z,4.70
2023-05-03T22:38:13.866Z,4.47
2023-05-03T22:40:59.405Z,4.35
2023-05-03T22:43:44.859Z,4.70
2023-05-03T22:46:30.445Z,4.38
2023-05-03T22:49:16.061Z,4.82
2023-05-03T22:52:01.693Z,4.70
2023-05-03T22:54:47.167Z,4.70
2023-05-03T22:57:32.624Z,4.90
2023-05-03T23:00:20.114Z,4.82
2023-05-03T23:03:07.662Z,4.55
2023-05-03T23:05:53.964Z,4.55
2023-05-03T23:08:39.437Z,4.40
2023-05-03T23:11:24.858Z,4.95
2023-05-03T23:14:10.197Z,5.18
2023-05-03T23:16:55.922Z,5.10
2023-05-03T23:19:41.703Z,5.53
2023-05-03T23:22:27.613Z,5.43
2023-05-03T23:25:12.899Z,5.57
2023-05-03T23:27:59.305Z,5.32
2023-05-03T23:30:46.200Z,5.90
2023-05-03T23:33:32.216Z,5.15
2023-05-03T23:36:17.580Z,5.03
2023-05-03T23:39:03.722Z,4.97
2023-05-03T23:41:49.374Z,5.10
2023-05-03T23:44:50.390Z,4.75
2023-05-03T23:47:40.084Z,5.47
2023-05-03T23:50:25.789Z,5.47
2023-05-03T23:53:11.239Z,5.45
2023-05-03T23:55:56.848Z,5.50
2023-05-03T23:58:42.502Z,6.15
